Ladora, Iowa
Current Conditions -  °F | °C
As of 12:19 AM on Sunday 23 Nov 2014 (Local Time) from KCID Reporting Station
Overcast Overcast  
Wind Chill: 44°   Ceiling: 800
Heat Index: 49°   Visibility: 7mi
Dew Point: 48°   Wind: 12mph
Humidity: 97%   Direction: 180°S
Pressure: 29.69"   Gusts: NA
Location:  41.75°N, 92.18°W
Report Text: KCID 230619Z AUTO 18010KT 7SM BKN008 OVC013 09/09 A2969 RMK AO2 T00940089
Loading
Personal Weather Stations






























Interactive Weather Map New forecast layout! Learn more

10-Day Weather Forecast

Advertisements
Track Severe Weather on mobile